MOREHEAD/NEWPORT, NC

7:20 AM EDT on May 25, 2017 (GMT -0400)
Cherry Ln | | Change Station
Active Advisory: Beach Hazard Statement

Elev 29 ft 34.78 °N, 76.89 °W | Updated 22 seconds ago

Partly Cloudy
Partly Cloudy
73.4 °F
Feels Like 73 °F
N
1.0
Wind Variable Wind from North

Today
High -- | Low -- °F
--% Chance of Precip.
Yesterday
High -- | Low -- °F
Precip. -- in
Pressure 29.57 in
Visibility 10.0 miles
Clouds Scattered Clouds 2500 ft
Scattered Clouds 3000 ft
Heat Index 73 °F
Dew Point 68 °F
Humidity 85%
Rainfall 0.02 in
Snow Depth Not available.
5:58 AM 8:11 PM
Waning Crescent, 0% visible
METAR KNKT 251054Z 23009KT 10SM SCT025 SCT030 23/19 A2958 RMK AO2 SLP013 T02280194
Pressure 29.57 in
Visibility 10.0 miles
Clouds Scattered Clouds 2500 ft
Scattered Clouds 3000 ft
Heat Index 73 °F
Dew Point 68 °F
Humidity 85%
Rainfall 0.02 in
Snow Depth Not available.
5:58 AM 8:11 PM
Waning Crescent, 0% visible
METAR KNKT 251054Z 23009KT 10SM SCT025 SCT030 23/19 A2958 RMK AO2 SLP013 T02280194

Get Your Daily Forecast Email!

Thanks for signing up!

Be on the lookout for a verification email in your inbox.

You'll start receiving severe weather alerts in your inbox..

×

10-Day Weather Forecast

Almanac

Astronomy

May. 25, 2017 Rise Set
Actual Time
Civil Twilight
Nautical Twilight
Astronomical Twilight
Moon
Length of Visible Light
Length of Day
Tomorrow will be .
, % of the Moon is Illuminated

Today's Extremes

State Highs State Lows

Community

WunderPhotos

Category 6

Welcome to Category 6. This is the collective home for Weather Underground's featured writeups by Dr. Jeff Masters (right), Bob Henson (left), Chris Burt, and other regular contributors.

Nearby

Air Quality

  Air Quality AQ Index Pollutant
Not available.

Snow Depth

Station Depth Elevation

Earthquake Activity

City Distance Mag. Time & Date
Minimum magnitude displayed is 2.5.

Coastal Water Temperatures

Place Temperature

Stations

Nearby Weather Stations

Station Location Temp. Windchill Dew Point Humidity Wind Precip. Elev Updated Type
                   

Watches & Warnings

Beach Hazard Statement
Issued: 4:39 AM EDT May. 25, 2017 – National Weather Service

... Beach hazards statement remains in effect through this
evening...

* hazards... high risk of rip currents.

* Location... Cape Hatteras south.

* Timing and tides... the most likely time for strong rip
currents to occur is a couple hours either side of low tide,
which will occur around 2 PM Thursday.

* Surf height... 5 to 8 feet south of Cape Hatteras.

Precautionary/preparedness actions...

If caught in a rip current remain calm. Don't fight the current.
Swim in a direction following the shoreline. When out of the
current, swim back to shore. If tired, float or tread water until
out of the rip current. If unable to escape, face the shore and
call or wave for help.